Goodsprings, Nevada
Current Conditions -  °F | °C
As of 8:56 PM on Wednesday 22 Oct 2014 (Local Time) from KHND Reporting Station
Clear Clear  
Wind Chill: 67°   Ceiling: Unl
Heat Index: 67°   Visibility: 10mi
Dew Point: 33°   Wind: 7mph
Humidity: 28%   Direction: 160°SSE
Pressure: 30.04"   Gusts: NA
Location:  35.8439°N, 115.475°W
Report Text: KHND 230356Z AUTO 16006KT 10SM CLR 19/01 A3004 RMK AO2 T01940005 SLP158
Loading
Personal Weather Stations






























Interactive Weather Map
Tropical Storm Tracking
New forecast layout! Learn more

10-Day Weather Forecast

Advertisements
Track Severe Weather on mobile